Miyako Airport
ROMY : now visible

Airfield :











YOU CAN JOIN US ON...

 
LOGIN :

Register | Disclaimer

   EN    FR    IT 

 









Legend :    VFR   Marginal VFR   IFR   Intensive IFR   Very Intensive IFR
Visi :
Ceiling :
>= 8 km
>= 3000ft
5 to 8 km
1000 to 3000 ft
1500m to 5 km
500 to 1000 ft
800 to 1500m
200 to 500 ft
< 800m
< 200 ft
Symbols :   Thunderstorms  Fog  Heavy snow  Heavy precipitations  Wind > 20 kt






- Airport Elevation : 150 ft
- IATA code : MMY


ROMY - Miyako

CURRENT METAR :
  • 190500Z 11009KT 9999 SCT027 SCT/// 35/27 Q1009

EXPIRED METARs :
  • 190400Z 13009KT 090V170 9999 SCT030 SCT/// 34/27 Q1010
  • 190300Z 13009KT 090V180 9999 FEW031 BKN/// 34/26 Q1010
  • 190200Z 14007KT 090V190 9999 FEW026 SCT/// 33/26 Q1010
  • 190100Z 16007KT 120V190 9999 SCT025 33/27 Q1010

TAF N/A
RJJJ FIR / Asia



MET'MAP, your aeronautical weather chart ! - Copyright ORBIFLY December 2007 - Disclaimer

ORBIFLY MET'MAP TEAM :

Programming & Development : Alexandra Zaïnal
Original concept : Baudouin d'Aumeries
Technical & hardware support : Manuel Goepfert
Assistance : Marc-Olivier Méhu




SOURCES & CREDITS :

   NOAA       Earth
Advisory